Queen Of Coquitlam — CZ8058 — position and weather

sailwx.info

Track history (hours):
 
Tides and Currents Weather Stations Pressure Air Temp Water Temp Dewpoint Dewpoint Depression Visibility Wind Speed Wind Dir Waves Ship Positions

Queen Of Coquitlam

Last reported at 2019-Mar-22 06:30 UTC. Time now 2019-Mar-22 06:44 UTC.
Position N 49°25' W 123°21'.

Length 139 m; draft 5.8 m.

Type: Passenger vessel. MMSI: 316001249.

Date/timePositionNaut miles runAvg speedWind from/ knotsBaromVisibWave heightAir tempDewpointWater temp
2019-Mar-22 06:30N 49°25' W 123°21'4 8.4
2019-Mar-22 06:00N 49°23' W 123°16'3 5.7
2019-Mar-22 05:30N 49°21' W 123°20'1019.9
2019-Mar-22 05:00N 49°17' W 123°33'1020.8
2019-Mar-22 04:31N 49°14' W 123°49'6 8.8
2019-Mar-22 03:49N 49°12' W 123°57'2 4.9
2019-Mar-22 03:31N 49°13' W 123°55'1020.4
2019-Mar-22 03:00N 49°16' W 123°41'1020.7
2019-Mar-22 02:30N 49°19' W 123°26'713.8
2019-Mar-22 02:00N 49°23' W 123°16'0 0.5
2019-Mar-22 01:30N 49°23' W 123°16'815.9
2019-Mar-22 01:00N 49°26' W 123°28'1 1.1
2019-Mar-22 00:30N 49°26' W 123°28'715.0
2019-Mar-22 00:00N 49°25' W 123°17'2 4.3
2019-Mar-21 23:30N 49°23' W 123°16'4 8.1
2019-Mar-21 23:00N 49°26' W 123°21'510.2
2019-Mar-21 22:30N 49°26' W 123°28'0 0.9
2019-Mar-21 22:00N 49°26' W 123°28'816.3
2019-Mar-21 21:31N 49°23' W 123°16'0 0.7
2019-Mar-21 21:00N 49°23' W 123°16'611.5
2019-Mar-21 20:30N 49°25' W 123°24'3 5.7
2019-Mar-21 20:00N 49°26' W 123°28'3 5.3
2019-Mar-21 19:31N 49°25' W 123°24'612.0
2019-Mar-21 19:00N 49°23' W 123°16'1 2.5
2019-Mar-21 18:31N 49°24' W 123°16'816.3
2019-Mar-21 18:00N 49°26' W 123°28'0 0.1
2019-Mar-21 17:30N 49°26' W 123°28'713.4
2019-Mar-21 17:00N 49°26' W 123°18'3 6.6
2019-Mar-21 16:30N 49°23' W 123°16'4 8.5
2019-Mar-21 16:00N 49°25' W 123°21'5 9.6
2019-Mar-21 15:30N 49°26' W 123°28'1 2.1
2019-Mar-21 15:00N 49°25' W 123°27'814.9
2019-Mar-21 14:30N 49°23' W 123°16'0 0.0
2019-Mar-21 14:00N 49°23' W 123°16'713.2
2019-Mar-21 13:30N 49°25' W 123°26'2 3.9
2019-Mar-21 13:00N 49°26' W 123°28'0 0.0
2019-Mar-21 12:30N 49°26' W 123°28'0 0.0
2019-Mar-21 11:58N 49°26' W 123°28'0 0.0
2019-Mar-21 11:29N 49°26' W 123°28'0 0.0
2019-Mar-21 10:59N 49°26' W 123°28'0 0.0
2019-Mar-21 10:29N 49°26' W 123°28'0 0.0
2019-Mar-21 09:59N 49°26' W 123°28'0 0.0
2019-Mar-21 09:29N 49°26' W 123°28'0 0.0
2019-Mar-21 08:59N 49°26' W 123°28'0 0.0
2019-Mar-21 08:29N 49°26' W 123°28'0 0.0
2019-Mar-21 07:59N 49°26' W 123°28'0 0.0
2019-Mar-21 07:29N 49°26' W 123°28'0 0.0
2019-Mar-21 06:58N 49°26' W 123°28'0 0.1
2019-Mar-21 06:31N 49°26' W 123°28'815.8
2019-Mar-21 06:01N 49°24' W 123°17'1 2.3
2019-Mar-21 05:30N 49°23' W 123°16'612.5
2019-Mar-21 05:00N 49°19' W 123°24'918.6
2019-Mar-21 04:30N 49°16' W 123°37'919.0
2019-Mar-21 04:00N 49°14' W 123°52'4 8.5
2019-Mar-21 03:31N 49°12' W 123°57'4 8.5
2019-Mar-21 03:00N 49°14' W 123°52'919.0
2019-Mar-21 02:31N 49°17' W 123°38'1019.2
2019-Mar-21 02:00N 49°19' W 123°24'611.6
2019-Mar-21 01:30N 49°23' W 123°16'3 5.2
2019-Mar-21 01:00N 49°25' W 123°17'714.8
2019-Mar-21 00:30N 49°26' W 123°28'1 3.0
2019-Mar-21 00:00N 49°25' W 123°26'714.1
2019-Mar-20 23:30N 49°23' W 123°16'0 0.0
2019-Mar-20 23:01N 49°23' W 123°16'612.6
2019-Mar-20 22:30N 49°25' W 123°25'2 4.6
2019-Mar-20 22:00N 49°26' W 123°28'4 8.3
2019-Mar-20 21:30N 49°25' W 123°22'5 9.5
2019-Mar-20 21:00N 49°23' W 123°16'3 7.0
2019-Mar-20 20:30N 49°26' W 123°18'611.4
2019-Mar-20 19:57N 49°26' W 123°28'2 5.4
2019-Mar-20 19:30N 49°25' W 123°25'612.4
2019-Mar-20 19:00N 49°23' W 123°16'1 3.0
2019-Mar-20 18:30N 49°24' W 123°16'1 0.8
2019-Mar-20 16:37N 49°23' W 123°16'0 0.0
2019-Mar-20 16:30N 49°23' W 123°16'4 7.2
2019-Mar-20 16:00N 49°26' W 123°19'611.8
2019-Mar-20 15:30N 49°26' W 123°28'1 2.6
2019-Mar-20 15:00N 49°25' W 123°27'714.5
2019-Mar-20 14:30N 49°23' W 123°16'0 0.0
2019-Mar-20 14:00N 49°23' W 123°16'612.3
2019-Mar-20 13:30N 49°25' W 123°25'2 4.8
2019-Mar-20 13:00N 49°26' W 123°28'0 0.0
2019-Mar-20 12:30N 49°26' W 123°28'0 0.0
2019-Mar-20 11:57N 49°26' W 123°28'0 0.0
2019-Mar-20 11:30N 49°26' W 123°28'0 0.0
2019-Mar-20 11:00N 49°26' W 123°28'0 0.0
2019-Mar-20 10:30N 49°26' W 123°28'0 0.0
2019-Mar-20 10:00N 49°26' W 123°28'0 0.0
2019-Mar-20 09:30N 49°26' W 123°28'0 0.0
2019-Mar-20 09:00N 49°26' W 123°28'0 0.0
2019-Mar-20 08:30N 49°26' W 123°28'0 0.0
2019-Mar-20 08:00N 49°26' W 123°28'0 0.0
2019-Mar-20 07:27N 49°26' W 123°28'0 0.0
2019-Mar-20 07:00N 49°26' W 123°28'0 0.1
2019-Mar-20 06:30N 49°26' W 123°28'815.8
2019-Mar-20 06:00N 49°24' W 123°17'1 2.6
2019-Mar-20 05:30N 49°23' W 123°16'713.4
2019-Mar-20 05:00N 49°19' W 123°25'918.4
2019-Mar-20 04:30N 49°16' W 123°38'918.6
2019-Mar-20 04:00N 49°14' W 123°52'4 8.1
2019-Mar-20 03:30N 49°12' W 123°57'5 9.3
2019-Mar-20 03:00N 49°14' W 123°51'918.0
2019-Mar-20 02:30N 49°17' W 123°38'917.9
2019-Mar-20 02:00N 49°19' W 123°25'713.2
2019-Mar-20 01:30N 49°23' W 123°16'1 1.5
2019-Mar-20 01:00N 49°23' W 123°16'816.5
2019-Mar-20 00:31N 49°26' W 123°28'0 0.8
2019-Mar-20 00:00N 49°26' W 123°28'816.0
2019-Mar-19 23:30N 49°23' W 123°16'0 0.6
2019-Mar-19 23:00N 49°23' W 123°16'612.2
2019-Mar-19 22:30N 49°25' W 123°25'2 5.0
2019-Mar-19 22:01N 49°26' W 123°28'4 7.7
2019-Mar-19 21:30N 49°25' W 123°22'5 9.7
2019-Mar-19 21:00N 49°23' W 123°16'2 4.3
2019-Mar-19 20:30N 49°25' W 123°17'815.2
2019-Mar-19 20:01N 49°26' W 123°28'0 0.4
2019-Mar-19 19:30N 49°26' W 123°28'816.5
2019-Mar-19 19:00N 49°23' W 123°16'1 1.2
2019-Mar-19 18:30N 49°23' W 123°16'612.1
2019-Mar-19 18:01N 49°25' W 123°25'3 5.1
2019-Mar-19 17:30N 49°26' W 123°28'611.7
2019-Mar-19 17:00N 49°26' W 123°19'4 7.4
2019-Mar-19 16:31N 49°23' W 123°16'4 7.9
2019-Mar-19 16:00N 49°26' W 123°20'510.4
2019-Mar-19 15:30N 49°26' W 123°28'1 2.2
2019-Mar-19 15:00N 49°25' W 123°27'714.9
2019-Mar-19 14:30N 49°23' W 123°16'0 0.1
2019-Mar-19 14:00N 49°23' W 123°16'713.5
2019-Mar-19 13:30N 49°25' W 123°26'2 3.6
2019-Mar-19 13:00N 49°26' W 123°28'0 0.0
2019-Mar-19 12:30N 49°26' W 123°28'0 0.0
2019-Mar-19 11:55N 49°26' W 123°28'0 0.0
2019-Mar-19 11:25N 49°26' W 123°28'0 0.0
2019-Mar-19 10:55N 49°26' W 123°28'0 0.0
2019-Mar-19 10:28N 49°26' W 123°28'0 0.0
2019-Mar-19 09:55N 49°26' W 123°28'0 0.0
2019-Mar-19 09:28N 49°26' W 123°28'0 0.0
2019-Mar-19 08:55N 49°26' W 123°28'0 0.0
2019-Mar-19 08:25N 49°26' W 123°28'0 0.0
2019-Mar-19 07:58N 49°26' W 123°28'0 0.0
2019-Mar-19 07:25N 49°26' W 123°28'0 0.0
2019-Mar-19 06:58N 49°26' W 123°28'0 0.1
2019-Mar-19 06:30N 49°26' W 123°28'815.6
2019-Mar-19 06:00N 49°24' W 123°17'1 2.9
2019-Mar-19 05:30N 49°23' W 123°16'611.4
2019-Mar-19 05:00N 49°19' W 123°23'1019.2
2019-Mar-19 04:30N 49°16' W 123°37'1019.2
2019-Mar-19 04:01N 49°14' W 123°51'4 6.7
2019-Mar-19 03:21N 49°12' W 123°57'413.0
2019-Mar-19 03:00N 49°14' W 123°52'918.9
2019-Mar-19 02:30N 49°17' W 123°38'918.4
2019-Mar-19 02:00N 49°19' W 123°24'613.0
2019-Mar-19 01:30N 49°23' W 123°16'0 0.6
2019-Mar-19 01:00N 49°23' W 123°16'815.1
2019-Mar-19 00:30N 49°26' W 123°27'1 1.8
2019-Mar-19 00:00N 49°26' W 123°28'715.0
2019-Mar-18 23:30N 49°25' W 123°17'2 4.4
2019-Mar-18 23:00N 49°23' W 123°16'510.2
2019-Mar-18 22:30N 49°25' W 123°23'4 7.3
2019-Mar-18 22:00N 49°26' W 123°28'4 8.4
2019-Mar-18 21:30N 49°25' W 123°22'5 9.4
2019-Mar-18 21:01N 49°23' W 123°16'3 5.3
2019-Mar-18 20:30N 49°25' W 123°17'712.6
2019-Mar-18 19:56N 49°26' W 123°28'1 2.2
2019-Mar-18 19:30N 49°26' W 123°27'815.1
2019-Mar-18 19:00N 49°23' W 123°16'0 0.1
2019-Mar-18 18:30N 49°23' W 123°16'714.1
2019-Mar-18 18:00N 49°25' W 123°26'1 2.4
2019-Mar-18 17:23N 49°26' W 123°28'616.2
2019-Mar-18 17:01N 49°26' W 123°19'4 7.0
2019-Mar-18 16:30N 49°23' W 123°16'4 7.2
2019-Mar-18 16:00N 49°26' W 123°19'611.6
2019-Mar-18 15:30N 49°26' W 123°28'1 1.9
2019-Mar-18 15:00N 49°26' W 123°27'815.2
2019-Mar-18 14:30N 49°23' W 123°16'0 0.0
2019-Mar-18 14:00N 49°23' W 123°16'612.9
2019-Mar-18 13:30N 49°25' W 123°25'2 4.4
2019-Mar-18 13:01N 49°26' W 123°28'0 0.0
2019-Mar-18 12:30N 49°26' W 123°28'0 0.0
2019-Mar-18 11:59N 49°26' W 123°28'0 0.0
2019-Mar-18 11:29N 49°26' W 123°28'0 0.0
2019-Mar-18 10:59N 49°26' W 123°28'0 0.0
2019-Mar-18 10:29N 49°26' W 123°28'0 0.0
2019-Mar-18 09:59N 49°26' W 123°28'0 0.0
2019-Mar-18 09:29N 49°26' W 123°28'0 0.0
2019-Mar-18 08:59N 49°26' W 123°28'0 0.0
2019-Mar-18 08:29N 49°26' W 123°28'0 0.0
2019-Mar-18 07:59N 49°26' W 123°28'0 0.0
2019-Mar-18 07:29N 49°26' W 123°28'0 0.0
2019-Mar-18 06:59N 49°26' W 123°28'0 0.1
2019-Mar-18 06:30N 49°26' W 123°28'815.7
2019-Mar-18 06:00N 49°24' W 123°17'1 2.2
2019-Mar-18 05:30N 49°23' W 123°16'815.7
2019-Mar-18 05:00N 49°18' W 123°25'1019.8
2019-Mar-18 04:30N 49°15' W 123°40'1019.8
2019-Mar-18 04:00N 49°13' W 123°55'2 3.1
2019-Mar-18 03:22N 49°12' W 123°57'3 8.1
2019-Mar-18 03:00N 49°13' W 123°54'1019.7
2019-Mar-18 02:30N 49°17' W 123°40'1019.8
2019-Mar-18 02:00N 49°19' W 123°25'713.3
2019-Mar-18 01:31N 49°23' W 123°16'0 0.1
2019-Mar-18 01:00N 49°23' W 123°16'816.0
2019-Mar-18 00:30N 49°26' W 123°27'1 1.1
2019-Mar-18 00:01N 49°26' W 123°28'714.4
2019-Mar-17 23:30N 49°25' W 123°17'3 5.2
2019-Mar-17 23:00N 49°23' W 123°16'510.9
2019-Mar-17 22:30N 49°25' W 123°23'3 6.5
2019-Mar-17 22:00N 49°26' W 123°28'4 8.3
2019-Mar-17 21:30N 49°25' W 123°22'5 9.4
2019-Mar-17 21:01N 49°23' W 123°16'3 5.2
2019-Mar-17 20:30N 49°25' W 123°17'714.4
2019-Mar-17 20:00N 49°26' W 123°28'0 0.8
2019-Mar-17 19:30N 49°26' W 123°28'816.1
2019-Mar-17 19:01N 49°23' W 123°16'1 1.0
2019-Mar-17 18:30N 49°23' W 123°16'713.4
2019-Mar-17 18:01N 49°25' W 123°26'2 3.8
2019-Mar-17 17:30N 49°26' W 123°28'612.2
2019-Mar-17 17:00N 49°26' W 123°19'4 7.3
2019-Mar-17 16:30N 49°23' W 123°16'4 7.8
2019-Mar-17 16:00N 49°26' W 123°20'510.7
2019-Mar-17 15:30N 49°26' W 123°28'2 3.4
2019-Mar-17 15:00N 49°25' W 123°26'713.7
2019-Mar-17 14:30N 49°23' W 123°16'0 0.0
2019-Mar-17 14:00N 49°23' W 123°16'612.5
2019-Mar-17 13:30N 49°25' W 123°25'2 4.7
2019-Mar-17 13:00N 49°26' W 123°28'0 0.0
2019-Mar-17 12:30N 49°26' W 123°28'0 0.0
2019-Mar-17 12:00N 49°26' W 123°28'0 0.0
2019-Mar-17 11:30N 49°26' W 123°28'0 0.0
2019-Mar-17 11:00N 49°26' W 123°28'0 0.0
2019-Mar-17 10:30N 49°26' W 123°28'0 0.0
2019-Mar-17 10:00N 49°26' W 123°28'0 0.0
2019-Mar-17 09:30N 49°26' W 123°28'0 0.0
2019-Mar-17 09:00N 49°26' W 123°28'0 0.0
2019-Mar-17 08:30N 49°26' W 123°28'0 0.0
2019-Mar-17 07:57N 49°26' W 123°28'0 0.0
2019-Mar-17 07:30N 49°26' W 123°28'0 0.0
2019-Mar-17 07:00N 49°26' W 123°28'0 0.0
2019-Mar-17 06:30N 49°26' W 123°28'715.0
2019-Mar-17 06:00N 49°25' W 123°17'2 3.7
2019-Mar-17 05:31N 49°23' W 123°16'714.1
2019-Mar-17 05:01N 49°19' W 123°25'918.2
2019-Mar-17 04:30N 49°16' W 123°38'918.3
2019-Mar-17 04:01N 49°14' W 123°52'4 7.8
2019-Mar-17 03:29N 49°12' W 123°57'5 9.3
2019-Mar-17 03:00N 49°14' W 123°51'1020.2
2019-Mar-17 02:31N 49°17' W 123°37'917.8
2019-Mar-17 02:00N 49°19' W 123°24'611.4
2019-Mar-17 01:30N 49°23' W 123°16'1 2.7
2019-Mar-17 01:00N 49°24' W 123°16'816.1
2019-Mar-17 00:31N 49°26' W 123°28'2 3.1
2019-Mar-17 00:00N 49°25' W 123°26'714.0
2019-Mar-16 23:30N 49°23' W 123°16'2 3.7
2019-Mar-16 23:01N 49°24' W 123°17'815.4
2019-Mar-16 22:31N 49°26' W 123°28'1 1.4
2019-Mar-16 22:00N 49°26' W 123°27'714.9
2019-Mar-16 21:30N 49°23' W 123°17'1 1.3
2019-Mar-16 21:00N 49°23' W 123°16'816.2
2019-Mar-16 20:30N 49°26' W 123°28'0 0.8
2019-Mar-16 20:01N 49°26' W 123°28'815.6
2019-Mar-16 19:30N 49°24' W 123°17'1 2.7
2019-Mar-16 19:00N 49°23' W 123°16'611.1
2019-Mar-16 18:30N 49°25' W 123°24'3 6.2
2019-Mar-16 18:01N 49°26' W 123°28'0 0.0
2019-Mar-16 17:30N 49°26' W 123°28'611.9
2019-Mar-16 17:00N 49°26' W 123°19'4 7.1
2019-Mar-16 16:30N 49°23' W 123°16'4 7.4
2019-Mar-16 16:00N 49°26' W 123°19'611.7
2019-Mar-16 15:30N 49°26' W 123°28'2 3.2
2019-Mar-16 15:00N 49°25' W 123°26'714.0
2019-Mar-16 14:30N 49°23' W 123°16'0 0.1
2019-Mar-16 14:00N 49°23' W 123°16'612.2
2019-Mar-16 13:30N 49°25' W 123°25'2 4.9
2019-Mar-16 13:00N 49°26' W 123°28'0 0.0
2019-Mar-16 12:31N 49°26' W 123°28'0 0.0
2019-Mar-16 11:58N 49°26' W 123°28'0 0.0
2019-Mar-16 11:27N 49°26' W 123°28'0 0.0
2019-Mar-16 10:57N 49°26' W 123°28'0 0.0
2019-Mar-16 10:27N 49°26' W 123°28'0 0.0
2019-Mar-16 09:57N 49°26' W 123°28'0 0.0
2019-Mar-16 09:27N 49°26' W 123°28'0 0.0
2019-Mar-16 08:57N 49°26' W 123°28'0 0.0
2019-Mar-16 08:27N 49°26' W 123°28'0 0.0
2019-Mar-16 07:58N 49°26' W 123°28'0 0.0
2019-Mar-16 07:30N 49°26' W 123°28'0 0.0
2019-Mar-16 07:00N 49°26' W 123°28'0 0.9
2019-Mar-16 06:30N 49°26' W 123°28'815.2
2019-Mar-16 06:00N 49°24' W 123°17'1 2.1
2019-Mar-16 05:30N 49°23' W 123°16'815.3
2019-Mar-16 05:00N 49°18' W 123°26'1020.6
2019-Mar-16 04:30N 49°15' W 123°41'1020.6
2019-Mar-16 04:00N 49°12' W 123°56'1 1.9
2019-Mar-16 03:27N 49°12' W 123°57'613.6
2019-Mar-16 03:00N 49°15' W 123°49'1020.2
2019-Mar-16 02:30N 49°18' W 123°35'1019.6
2019-Mar-16 02:00N 49°21' W 123°20'3 6.5
2019-Mar-16 01:30N 49°23' W 123°16'2 4.7
2019-Mar-16 01:00N 49°25' W 123°17'714.9
2019-Mar-16 00:30N 49°26' W 123°28'0 0.8
2019-Mar-16 00:00N 49°26' W 123°28'816.3
2019-Mar-15 23:30N 49°23' W 123°16'0 0.6
2019-Mar-15 23:00N 49°23' W 123°16'713.0
2019-Mar-15 22:30N 49°25' W 123°25'2 4.2
2019-Mar-15 22:01N 49°26' W 123°28'5 9.4
2019-Mar-15 21:30N 49°25' W 123°21'4 8.6
2019-Mar-15 21:00N 49°23' W 123°16'3 6.2
2019-Mar-15 20:31N 49°25' W 123°18'713.4
2019-Mar-15 20:00N 49°26' W 123°28'0 0.8
2019-Mar-15 19:30N 49°26' W 123°28'815.4
2019-Mar-15 19:00N 49°24' W 123°17'1 2.1
2019-Mar-15 18:31N 49°23' W 123°16'611.6
2019-Mar-15 18:00N 49°25' W 123°24'3 5.7
2019-Mar-15 17:30N 49°26' W 123°28'611.1
2019-Mar-15 17:01N 49°26' W 123°20'4 7.5
2019-Mar-15 16:30N 49°23' W 123°16'4 7.7
2019-Mar-15 16:00N 49°26' W 123°20'510.8
2019-Mar-15 15:30N 49°26' W 123°28'2 3.2
2019-Mar-15 15:00N 49°25' W 123°26'713.9
2019-Mar-15 14:30N 49°23' W 123°16'0 0.1
2019-Mar-15 14:00N 49°23' W 123°16'612.7
2019-Mar-15 13:31N 49°25' W 123°25'2 4.5
2019-Mar-15 13:00N 49°26' W 123°28'0 0.0
2019-Mar-15 12:24N 49°26' W 123°28'0 0.0
2019-Mar-15 12:00N 49°26' W 123°28'0 0.0
2019-Mar-15 11:30N 49°26' W 123°28'0 0.0
2019-Mar-15 11:00N 49°26' W 123°28'0 0.0
2019-Mar-15 10:30N 49°26' W 123°28'0 0.0
2019-Mar-15 10:00N 49°26' W 123°28'0 0.0
2019-Mar-15 09:30N 49°26' W 123°28'0 0.0
2019-Mar-15 09:00N 49°26' W 123°28'0 0.0
2019-Mar-15 08:27N 49°26' W 123°28'0 0.0
2019-Mar-15 08:00N 49°26' W 123°28'0 0.0
2019-Mar-15 07:30N 49°26' W 123°28'0 0.0
2019-Mar-15 06:57N 49°26' W 123°28'0 1.1
2019-Mar-15 06:30N 49°26' W 123°28'714.7
2019-Mar-15 06:00N 49°24' W 123°17'1 1.6
2019-Mar-15 05:30N 49°23' W 123°16'815.6
2019-Mar-15 05:00N 49°18' W 123°26'918.6
2019-Mar-15 04:30N 49°15' W 123°39'918.0
2019-Mar-15 04:00N 49°13' W 123°53'3 4.7
2019-Mar-15 03:18N 49°12' W 123°57'517.6
2019-Mar-15 03:01N 49°14' W 123°50'1019.7
2019-Mar-15 02:31N 49°17' W 123°36'1019.6
2019-Mar-15 02:00N 49°20' W 123°21'4 8.6
2019-Mar-15 01:30N 49°23' W 123°16'2 4.9
2019-Mar-15 01:01N 49°25' W 123°17'714.7
2019-Mar-15 00:30N 49°26' W 123°28'1 2.4
2019-Mar-15 00:00N 49°25' W 123°27'714.9
2019-Mar-14 23:30N 49°23' W 123°16'0 0.1
2019-Mar-14 23:00N 49°23' W 123°16'815.4
2019-Mar-14 22:30N 49°26' W 123°27'1 1.7
2019-Mar-14 22:00N 49°26' W 123°28'510.4
2019-Mar-14 21:30N 49°26' W 123°20'4 8.0
2019-Mar-14 21:00N 49°23' W 123°16'3 6.1
2019-Mar-14 20:30N 49°25' W 123°18'713.7
2019-Mar-14 20:00N 49°26' W 123°28'1 1.6
2019-Mar-14 19:30N 49°26' W 123°27'714.7
2019-Mar-14 19:01N 49°24' W 123°17'1 2.1
2019-Mar-14 18:30N 49°23' W 123°16'612.2
2019-Mar-14 18:00N 49°25' W 123°25'3 5.1
2019-Mar-14 17:30N 49°26' W 123°28'611.6
2019-Mar-14 17:00N 49°26' W 123°19'4 7.5
2019-Mar-14 16:30N 49°23' W 123°16'4 7.4
2019-Mar-14 16:00N 49°26' W 123°19'611.6
2019-Mar-14 15:30N 49°26' W 123°28'2 3.3
2019-Mar-14 15:00N 49°25' W 123°26'713.8
2019-Mar-14 14:30N 49°23' W 123°16'0 0.1
2019-Mar-14 14:00N 49°23' W 123°16'612.7
2019-Mar-14 13:31N 49°25' W 123°25'2 4.4
2019-Mar-14 13:00N 49°26' W 123°28'0 0.0
2019-Mar-14 12:28N 49°26' W 123°28'0 0.0
2019-Mar-14 11:55N 49°26' W 123°28'0 0.0
2019-Mar-14 11:25N 49°26' W 123°28'0 0.0
2019-Mar-14 10:55N 49°26' W 123°28'0 0.0
2019-Mar-14 10:28N 49°26' W 123°28'0 0.0
2019-Mar-14 09:55N 49°26' W 123°28'0 0.0
2019-Mar-14 09:25N 49°26' W 123°28'0 0.0
2019-Mar-14 08:55N 49°26' W 123°28'0 0.0
2019-Mar-14 08:25N 49°26' W 123°28'0 0.0
2019-Mar-14 07:55N 49°26' W 123°28'0 0.0
2019-Mar-14 07:25N 49°26' W 123°28'0 0.0
2019-Mar-14 06:55N 49°26' W 123°28'0 0.5
2019-Mar-14 06:30N 49°26' W 123°28'815.6
2019-Mar-14 06:00N 49°24' W 123°17'1 2.3
2019-Mar-14 05:30N 49°23' W 123°16'713.8
2019-Mar-14 05:00N 49°19' W 123°25'918.6
2019-Mar-14 04:30N 49°16' W 123°39'918.8
2019-Mar-14 04:00N 49°13' W 123°53'4 6.0
2019-Mar-14 03:24N 49°12' W 123°57'513.7
2019-Mar-14 03:00N 49°14' W 123°50'918.3
2019-Mar-14 02:30N 49°17' W 123°37'918.5
2019-Mar-14 02:00N 49°19' W 123°23'510.9
2019-Mar-14 01:30N 49°23' W 123°16'1 1.4
2019-Mar-14 01:01N 49°23' W 123°16'816.1
2019-Mar-14 00:30N 49°26' W 123°28'0 0.4
2019-Mar-14 00:00N 49°26' W 123°28'815.4
2019-Mar-13 23:30N 49°24' W 123°17'1 2.9
2019-Mar-13 23:00N 49°23' W 123°16'511.0
2019-Mar-13 22:30N 49°25' W 123°24'3 6.3
2019-Mar-13 22:00N 49°26' W 123°28'4 8.0
2019-Mar-13 21:30N 49°25' W 123°22'5 9.6
2019-Mar-13 21:01N 49°23' W 123°16'3 5.5
2019-Mar-13 20:30N 49°25' W 123°18'714.0
2019-Mar-13 20:00N 49°26' W 123°28'0 0.3
2019-Mar-13 19:30N 49°26' W 123°28'815.8
2019-Mar-13 19:00N 49°24' W 123°17'1 2.3
2019-Mar-13 18:30N 49°23' W 123°16'713.6
2019-Mar-13 18:00N 49°25' W 123°26'2 3.6
2019-Mar-13 17:30N 49°26' W 123°28'611.1
2019-Mar-13 17:00N 49°26' W 123°20'4 7.6
2019-Mar-13 16:30N 49°23' W 123°16'4 8.3
2019-Mar-13 16:00N 49°25' W 123°21'5 9.8
2019-Mar-13 15:30N 49°26' W 123°28'1 2.9
2019-Mar-13 15:00N 49°25' W 123°26'714.3
2019-Mar-13 14:30N 49°23' W 123°16'0 0.1
2019-Mar-13 14:00N 49°23' W 123°16'713.1
2019-Mar-13 13:30N 49°25' W 123°25'2 4.1
2019-Mar-13 13:00N 49°26' W 123°28'8 1.0
2019-Mar-13 05:09N 49°20' W 123°21'319.4
2019-Mar-13 05:00N 49°19' W 123°25'1418.6
2019-Mar-13 04:14N 49°15' W 123°45'418.1
2019-Mar-13 04:00N 49°14' W 123°52'4 6.8
2019-Mar-13 03:24N 49°12' W 123°57'4 9.4
2019-Mar-13 03:00N 49°14' W 123°53'1020.6
2019-Mar-13 02:30N 49°17' W 123°38'1515.0
2019-Mar-13 01:30N 49°23' W 123°16'1 1.5
2019-Mar-13 01:00N 49°23' W 123°16'815.5
2019-Mar-13 00:30N 49°26' W 123°27'1 1.2
2019-Mar-13 00:00N 49°26' W 123°28'714.6
2019-Mar-12 23:30N 49°25' W 123°17'2 4.7
2019-Mar-12 23:00N 49°23' W 123°16'510.5
2019-Mar-12 22:30N 49°25' W 123°23'3 6.9
2019-Mar-12 22:00N 49°26' W 123°28'4 8.9
2019-Mar-12 21:30N 49°25' W 123°22'4 8.8
2019-Mar-12 21:00N 49°23' W 123°16'3 5.4
2019-Mar-12 20:31N 49°25' W 123°18'714.2
2019-Mar-12 20:01N 49°26' W 123°28'1 1.1
2019-Mar-12 19:30N 49°26' W 123°27'714.9
2019-Mar-12 19:00N 49°24' W 123°17'1 2.1
2019-Mar-12 18:30N 49°23' W 123°16'612.3
2019-Mar-12 18:00N 49°25' W 123°25'2 4.8
2019-Mar-12 17:30N 49°26' W 123°28'612.3
2019-Mar-12 17:00N 49°26' W 123°19'4 7.0
2019-Mar-12 16:30N 49°23' W 123°16'4 7.5
2019-Mar-12 16:00N 49°26' W 123°20'611.2
2019-Mar-12 15:30N 49°26' W 123°28'2 3.4
2019-Mar-12 15:00N 49°25' W 123°26'713.6
2019-Mar-12 14:30N 49°23' W 123°16'0 0.0
2019-Mar-12 14:00N 49°23' W 123°16'612.7
2019-Mar-12 13:30N 49°25' W 123°25'2 4.4
2019-Mar-12 13:00N 49°26' W 123°28'0 0.0
2019-Mar-12 12:29N 49°26' W 123°28'0 0.0
2019-Mar-12 11:59N 49°26' W 123°28'0 0.0
2019-Mar-12 11:29N 49°26' W 123°28'0 0.0
2019-Mar-12 10:59N 49°26' W 123°28'0 0.0
2019-Mar-12 10:26N 49°26' W 123°28'0 0.0
2019-Mar-12 09:59N 49°26' W 123°28'0 0.0
2019-Mar-12 09:29N 49°26' W 123°28'0 0.0
2019-Mar-12 08:59N 49°26' W 123°28'0 0.0
2019-Mar-12 08:29N 49°26' W 123°28'0 0.0
2019-Mar-12 07:56N 49°26' W 123°28'0 0.0
2019-Mar-12 07:29N 49°26' W 123°28'0 0.0
2019-Mar-12 06:59N 49°26' W 123°28'  
Track history (hours):
 
Tides and Currents Weather Stations Pressure Air Temp Water Temp Dewpoint Dewpoint Depression Visibility Wind Speed Wind Dir Waves Ship Positions

Queen Of Coquitlam

Last reported at 2019-Mar-22 06:30 UTC. Time now 2019-Mar-22 06:44 UTC.
Position N 49°25' W 123°21'.

Length 139 m; draft 5.8 m.

Type: Passenger vessel. MMSI: 316001249.

Date/timePositionNaut miles runAvg speedWind from/ knotsBaromVisibWave heightAir tempDewpointWater temp
2019-Mar-22 06:30N 49°25' W 123°21'4 8.4
2019-Mar-22 06:00N 49°23' W 123°16'3 5.7
2019-Mar-22 05:30N 49°21' W 123°20'1019.9
2019-Mar-22 05:00N 49°17' W 123°33'1020.8
2019-Mar-22 04:31N 49°14' W 123°49'6 8.8
2019-Mar-22 03:49N 49°12' W 123°57'2 4.9
2019-Mar-22 03:31N 49°13' W 123°55'1020.4
2019-Mar-22 03:00N 49°16' W 123°41'1020.7
2019-Mar-22 02:30N 49°19' W 123°26'713.8
2019-Mar-22 02:00N 49°23' W 123°16'0 0.5
2019-Mar-22 01:30N 49°23' W 123°16'815.9
2019-Mar-22 01:00N 49°26' W 123°28'1 1.1
2019-Mar-22 00:30N 49°26' W 123°28'715.0
2019-Mar-22 00:00N 49°25' W 123°17'2 4.3
2019-Mar-21 23:30N 49°23' W 123°16'4 8.1
2019-Mar-21 23:00N 49°26' W 123°21'510.2
2019-Mar-21 22:30N 49°26' W 123°28'0 0.9
2019-Mar-21 22:00N 49°26' W 123°28'816.3
2019-Mar-21 21:31N 49°23' W 123°16'0 0.7
2019-Mar-21 21:00N 49°23' W 123°16'611.5
2019-Mar-21 20:30N 49°25' W 123°24'3 5.7
2019-Mar-21 20:00N 49°26' W 123°28'3 5.3
2019-Mar-21 19:31N 49°25' W 123°24'612.0
2019-Mar-21 19:00N 49°23' W 123°16'1 2.5
2019-Mar-21 18:31N 49°24' W 123°16'816.3
2019-Mar-21 18:00N 49°26' W 123°28'0 0.1
2019-Mar-21 17:30N 49°26' W 123°28'713.4
2019-Mar-21 17:00N 49°26' W 123°18'3 6.6
2019-Mar-21 16:30N 49°23' W 123°16'4 8.5
2019-Mar-21 16:00N 49°25' W 123°21'5 9.6
2019-Mar-21 15:30N 49°26' W 123°28'1 2.1
2019-Mar-21 15:00N 49°25' W 123°27'814.9
2019-Mar-21 14:30N 49°23' W 123°16'0 0.0
2019-Mar-21 14:00N 49°23' W 123°16'713.2
2019-Mar-21 13:30N 49°25' W 123°26'2 3.9
2019-Mar-21 13:00N 49°26' W 123°28'0 0.0
2019-Mar-21 12:30N 49°26' W 123°28'0 0.0
2019-Mar-21 11:58N 49°26' W 123°28'0 0.0
2019-Mar-21 11:29N 49°26' W 123°28'0 0.0
2019-Mar-21 10:59N 49°26' W 123°28'0 0.0
2019-Mar-21 10:29N 49°26' W 123°28'0 0.0
2019-Mar-21 09:59N 49°26' W 123°28'0 0.0
2019-Mar-21 09:29N 49°26' W 123°28'0 0.0
2019-Mar-21 08:59N 49°26' W 123°28'0 0.0
2019-Mar-21 08:29N 49°26' W 123°28'0 0.0
2019-Mar-21 07:59N 49°26' W 123°28'0 0.0
2019-Mar-21 07:29N 49°26' W 123°28'0 0.0
2019-Mar-21 06:58N 49°26' W 123°28'0 0.1
2019-Mar-21 06:31N 49°26' W 123°28'815.8
2019-Mar-21 06:01N 49°24' W 123°17'1 2.3
2019-Mar-21 05:30N 49°23' W 123°16'612.5
2019-Mar-21 05:00N 49°19' W 123°24'918.6
2019-Mar-21 04:30N 49°16' W 123°37'919.0
2019-Mar-21 04:00N 49°14' W 123°52'4 8.5
2019-Mar-21 03:31N 49°12' W 123°57'4 8.5
2019-Mar-21 03:00N 49°14' W 123°52'919.0
2019-Mar-21 02:31N 49°17' W 123°38'1019.2
2019-Mar-21 02:00N 49°19' W 123°24'611.6
2019-Mar-21 01:30N 49°23' W 123°16'3 5.2
2019-Mar-21 01:00N 49°25' W 123°17'714.8
2019-Mar-21 00:30N 49°26' W 123°28'1 3.0
2019-Mar-21 00:00N 49°25' W 123°26'714.1
2019-Mar-20 23:30N 49°23' W 123°16'0 0.0
2019-Mar-20 23:01N 49°23' W 123°16'612.6
2019-Mar-20 22:30N 49°25' W 123°25'2 4.6
2019-Mar-20 22:00N 49°26' W 123°28'4 8.3
2019-Mar-20 21:30N 49°25' W 123°22'5 9.5
2019-Mar-20 21:00N 49°23' W 123°16'3 7.0
2019-Mar-20 20:30N 49°26' W 123°18'611.4
2019-Mar-20 19:57N 49°26' W 123°28'2 5.4
2019-Mar-20 19:30N 49°25' W 123°25'612.4
2019-Mar-20 19:00N 49°23' W 123°16'1 3.0
2019-Mar-20 18:30N 49°24' W 123°16'1 0.8
2019-Mar-20 16:37N 49°23' W 123°16'0 0.0
2019-Mar-20 16:30N 49°23' W 123°16'4 7.2
2019-Mar-20 16:00N 49°26' W 123°19'611.8
2019-Mar-20 15:30N 49°26' W 123°28'1 2.6
2019-Mar-20 15:00N 49°25' W 123°27'714.5
2019-Mar-20 14:30N 49°23' W 123°16'0 0.0
2019-Mar-20 14:00N 49°23' W 123°16'612.3
2019-Mar-20 13:30N 49°25' W 123°25'2 4.8
2019-Mar-20 13:00N 49°26' W 123°28'0 0.0
2019-Mar-20 12:30N 49°26' W 123°28'0 0.0
2019-Mar-20 11:57N 49°26' W 123°28'0 0.0
2019-Mar-20 11:30N 49°26' W 123°28'0 0.0
2019-Mar-20 11:00N 49°26' W 123°28'0 0.0
2019-Mar-20 10:30N 49°26' W 123°28'0 0.0
2019-Mar-20 10:00N 49°26' W 123°28'0 0.0
2019-Mar-20 09:30N 49°26' W 123°28'0 0.0
2019-Mar-20 09:00N 49°26' W 123°28'0 0.0
2019-Mar-20 08:30N 49°26' W 123°28'0 0.0
2019-Mar-20 08:00N 49°26' W 123°28'0 0.0
2019-Mar-20 07:27N 49°26' W 123°28'0 0.0
2019-Mar-20 07:00N 49°26' W 123°28'0 0.1
2019-Mar-20 06:30N 49°26' W 123°28'815.8
2019-Mar-20 06:00N 49°24' W 123°17'1 2.6
2019-Mar-20 05:30N 49°23' W 123°16'713.4
2019-Mar-20 05:00N 49°19' W 123°25'918.4
2019-Mar-20 04:30N 49°16' W 123°38'918.6
2019-Mar-20 04:00N 49°14' W 123°52'4 8.1
2019-Mar-20 03:30N 49°12' W 123°57'5 9.3
2019-Mar-20 03:00N 49°14' W 123°51'918.0
2019-Mar-20 02:30N 49°17' W 123°38'917.9
2019-Mar-20 02:00N 49°19' W 123°25'713.2
2019-Mar-20 01:30N 49°23' W 123°16'1 1.5
2019-Mar-20 01:00N 49°23' W 123°16'816.5
2019-Mar-20 00:31N 49°26' W 123°28'0 0.8
2019-Mar-20 00:00N 49°26' W 123°28'816.0
2019-Mar-19 23:30N 49°23' W 123°16'0 0.6
2019-Mar-19 23:00N 49°23' W 123°16'612.2
2019-Mar-19 22:30N 49°25' W 123°25'2 5.0
2019-Mar-19 22:01N 49°26' W 123°28'4 7.7
2019-Mar-19 21:30N 49°25' W 123°22'5 9.7
2019-Mar-19 21:00N 49°23' W 123°16'2 4.3
2019-Mar-19 20:30N 49°25' W 123°17'815.2
2019-Mar-19 20:01N 49°26' W 123°28'0 0.4
2019-Mar-19 19:30N 49°26' W 123°28'816.5
2019-Mar-19 19:00N 49°23' W 123°16'1 1.2
2019-Mar-19 18:30N 49°23' W 123°16'612.1
2019-Mar-19 18:01N 49°25' W 123°25'3 5.1
2019-Mar-19 17:30N 49°26' W 123°28'611.7
2019-Mar-19 17:00N 49°26' W 123°19'4 7.4
2019-Mar-19 16:31N 49°23' W 123°16'4 7.9
2019-Mar-19 16:00N 49°26' W 123°20'510.4
2019-Mar-19 15:30N 49°26' W 123°28'1 2.2
2019-Mar-19 15:00N 49°25' W 123°27'714.9
2019-Mar-19 14:30N 49°23' W 123°16'0 0.1
2019-Mar-19 14:00N 49°23' W 123°16'713.5
2019-Mar-19 13:30N 49°25' W 123°26'2 3.6
2019-Mar-19 13:00N 49°26' W 123°28'0 0.0
2019-Mar-19 12:30N 49°26' W 123°28'0 0.0
2019-Mar-19 11:55N 49°26' W 123°28'0 0.0
2019-Mar-19 11:25N 49°26' W 123°28'0 0.0
2019-Mar-19 10:55N 49°26' W 123°28'0 0.0
2019-Mar-19 10:28N 49°26' W 123°28'0 0.0
2019-Mar-19 09:55N 49°26' W 123°28'0 0.0
2019-Mar-19 09:28N 49°26' W 123°28'0 0.0
2019-Mar-19 08:55N 49°26' W 123°28'0 0.0
2019-Mar-19 08:25N 49°26' W 123°28'0 0.0
2019-Mar-19 07:58N 49°26' W 123°28'0 0.0
2019-Mar-19 07:25N 49°26' W 123°28'0 0.0
2019-Mar-19 06:58N 49°26' W 123°28'0 0.1
2019-Mar-19 06:30N 49°26' W 123°28'815.6
2019-Mar-19 06:00N 49°24' W 123°17'1 2.9
2019-Mar-19 05:30N 49°23' W 123°16'611.4
2019-Mar-19 05:00N 49°19' W 123°23'1019.2
2019-Mar-19 04:30N 49°16' W 123°37'1019.2
2019-Mar-19 04:01N 49°14' W 123°51'4 6.7
2019-Mar-19 03:21N 49°12' W 123°57'413.0
2019-Mar-19 03:00N 49°14' W 123°52'918.9
2019-Mar-19 02:30N 49°17' W 123°38'918.4
2019-Mar-19 02:00N 49°19' W 123°24'613.0
2019-Mar-19 01:30N 49°23' W 123°16'0 0.6
2019-Mar-19 01:00N 49°23' W 123°16'815.1
2019-Mar-19 00:30N 49°26' W 123°27'1 1.8
2019-Mar-19 00:00N 49°26' W 123°28'715.0
2019-Mar-18 23:30N 49°25' W 123°17'2 4.4
2019-Mar-18 23:00N 49°23' W 123°16'510.2
2019-Mar-18 22:30N 49°25' W 123°23'4 7.3
2019-Mar-18 22:00N 49°26' W 123°28'4 8.4
2019-Mar-18 21:30N 49°25' W 123°22'5 9.4
2019-Mar-18 21:01N 49°23' W 123°16'3 5.3
2019-Mar-18 20:30N 49°25' W 123°17'712.6
2019-Mar-18 19:56N 49°26' W 123°28'1 2.2
2019-Mar-18 19:30N 49°26' W 123°27'815.1
2019-Mar-18 19:00N 49°23' W 123°16'0 0.1
2019-Mar-18 18:30N 49°23' W 123°16'714.1
2019-Mar-18 18:00N 49°25' W 123°26'1 2.4
2019-Mar-18 17:23N 49°26' W 123°28'616.2
2019-Mar-18 17:01N 49°26' W 123°19'4 7.0
2019-Mar-18 16:30N 49°23' W 123°16'4 7.2
2019-Mar-18 16:00N 49°26' W 123°19'611.6
2019-Mar-18 15:30N 49°26' W 123°28'1 1.9
2019-Mar-18 15:00N 49°26' W 123°27'815.2
2019-Mar-18 14:30N 49°23' W 123°16'0 0.0
2019-Mar-18 14:00N 49°23' W 123°16'612.9
2019-Mar-18 13:30N 49°25' W 123°25'2 4.4
2019-Mar-18 13:01N 49°26' W 123°28'0 0.0
2019-Mar-18 12:30N 49°26' W 123°28'0 0.0
2019-Mar-18 11:59N 49°26' W 123°28'0 0.0
2019-Mar-18 11:29N 49°26' W 123°28'0 0.0
2019-Mar-18 10:59N 49°26' W 123°28'0 0.0
2019-Mar-18 10:29N 49°26' W 123°28'0 0.0
2019-Mar-18 09:59N 49°26' W 123°28'0 0.0
2019-Mar-18 09:29N 49°26' W 123°28'0 0.0
2019-Mar-18 08:59N 49°26' W 123°28'0 0.0
2019-Mar-18 08:29N 49°26' W 123°28'0 0.0
2019-Mar-18 07:59N 49°26' W 123°28'0 0.0
2019-Mar-18 07:29N 49°26' W 123°28'0 0.0
2019-Mar-18 06:59N 49°26' W 123°28'0 0.1
2019-Mar-18 06:30N 49°26' W 123°28'815.7
2019-Mar-18 06:00N 49°24' W 123°17'1 2.2
2019-Mar-18 05:30N 49°23' W 123°16'815.7
2019-Mar-18 05:00N 49°18' W 123°25'1019.8
2019-Mar-18 04:30N 49°15' W 123°40'1019.8
2019-Mar-18 04:00N 49°13' W 123°55'2 3.1
2019-Mar-18 03:22N 49°12' W 123°57'3 8.1
2019-Mar-18 03:00N 49°13' W 123°54'1019.7
2019-Mar-18 02:30N 49°17' W 123°40'1019.8
2019-Mar-18 02:00N 49°19' W 123°25'713.3
2019-Mar-18 01:31N 49°23' W 123°16'0 0.1
2019-Mar-18 01:00N 49°23' W 123°16'816.0
2019-Mar-18 00:30N 49°26' W 123°27'1 1.1
2019-Mar-18 00:01N 49°26' W 123°28'714.4
2019-Mar-17 23:30N 49°25' W 123°17'3 5.2
2019-Mar-17 23:00N 49°23' W 123°16'510.9
2019-Mar-17 22:30N 49°25' W 123°23'3 6.5
2019-Mar-17 22:00N 49°26' W 123°28'4 8.3
2019-Mar-17 21:30N 49°25' W 123°22'5 9.4
2019-Mar-17 21:01N 49°23' W 123°16'3 5.2
2019-Mar-17 20:30N 49°25' W 123°17'714.4
2019-Mar-17 20:00N 49°26' W 123°28'0 0.8
2019-Mar-17 19:30N 49°26' W 123°28'816.1
2019-Mar-17 19:01N 49°23' W 123°16'1 1.0
2019-Mar-17 18:30N 49°23' W 123°16'713.4
2019-Mar-17 18:01N 49°25' W 123°26'2 3.8
2019-Mar-17 17:30N 49°26' W 123°28'612.2
2019-Mar-17 17:00N 49°26' W 123°19'4 7.3
2019-Mar-17 16:30N 49°23' W 123°16'4 7.8
2019-Mar-17 16:00N 49°26' W 123°20'510.7
2019-Mar-17 15:30N 49°26' W 123°28'2 3.4
2019-Mar-17 15:00N 49°25' W 123°26'713.7
2019-Mar-17 14:30N 49°23' W 123°16'0 0.0
2019-Mar-17 14:00N 49°23' W 123°16'612.5
2019-Mar-17 13:30N 49°25' W 123°25'2 4.7
2019-Mar-17 13:00N 49°26' W 123°28'0 0.0
2019-Mar-17 12:30N 49°26' W 123°28'0 0.0
2019-Mar-17 12:00N 49°26' W 123°28'0 0.0
2019-Mar-17 11:30N 49°26' W 123°28'0 0.0
2019-Mar-17 11:00N 49°26' W 123°28'0 0.0
2019-Mar-17 10:30N 49°26' W 123°28'0 0.0
2019-Mar-17 10:00N 49°26' W 123°28'0 0.0
2019-Mar-17 09:30N 49°26' W 123°28'0 0.0
2019-Mar-17 09:00N 49°26' W 123°28'0 0.0
2019-Mar-17 08:30N 49°26' W 123°28'0 0.0
2019-Mar-17 07:57N 49°26' W 123°28'0 0.0
2019-Mar-17 07:30N 49°26' W 123°28'0 0.0
2019-Mar-17 07:00N 49°26' W 123°28'0 0.0
2019-Mar-17 06:30N 49°26' W 123°28'715.0
2019-Mar-17 06:00N 49°25' W 123°17'2 3.7
2019-Mar-17 05:31N 49°23' W 123°16'714.1
2019-Mar-17 05:01N 49°19' W 123°25'918.2
2019-Mar-17 04:30N 49°16' W 123°38'918.3
2019-Mar-17 04:01N 49°14' W 123°52'4 7.8
2019-Mar-17 03:29N 49°12' W 123°57'5 9.3
2019-Mar-17 03:00N 49°14' W 123°51'1020.2
2019-Mar-17 02:31N 49°17' W 123°37'917.8
2019-Mar-17 02:00N 49°19' W 123°24'611.4
2019-Mar-17 01:30N 49°23' W 123°16'1 2.7
2019-Mar-17 01:00N 49°24' W 123°16'816.1
2019-Mar-17 00:31N 49°26' W 123°28'2 3.1
2019-Mar-17 00:00N 49°25' W 123°26'714.0
2019-Mar-16 23:30N 49°23' W 123°16'2 3.7
2019-Mar-16 23:01N 49°24' W 123°17'815.4
2019-Mar-16 22:31N 49°26' W 123°28'1 1.4
2019-Mar-16 22:00N 49°26' W 123°27'714.9
2019-Mar-16 21:30N 49°23' W 123°17'1 1.3
2019-Mar-16 21:00N 49°23' W 123°16'816.2
2019-Mar-16 20:30N 49°26' W 123°28'0 0.8
2019-Mar-16 20:01N 49°26' W 123°28'815.6
2019-Mar-16 19:30N 49°24' W 123°17'1 2.7
2019-Mar-16 19:00N 49°23' W 123°16'611.1
2019-Mar-16 18:30N 49°25' W 123°24'3 6.2
2019-Mar-16 18:01N 49°26' W 123°28'0 0.0
2019-Mar-16 17:30N 49°26' W 123°28'611.9
2019-Mar-16 17:00N 49°26' W 123°19'4 7.1
2019-Mar-16 16:30N 49°23' W 123°16'4 7.4
2019-Mar-16 16:00N 49°26' W 123°19'611.7
2019-Mar-16 15:30N 49°26' W 123°28'2 3.2
2019-Mar-16 15:00N 49°25' W 123°26'714.0
2019-Mar-16 14:30N 49°23' W 123°16'0 0.1
2019-Mar-16 14:00N 49°23' W 123°16'612.2
2019-Mar-16 13:30N 49°25' W 123°25'2 4.9
2019-Mar-16 13:00N 49°26' W 123°28'0 0.0
2019-Mar-16 12:31N 49°26' W 123°28'0 0.0
2019-Mar-16 11:58N 49°26' W 123°28'0 0.0
2019-Mar-16 11:27N 49°26' W 123°28'0 0.0
2019-Mar-16 10:57N 49°26' W 123°28'0 0.0
2019-Mar-16 10:27N 49°26' W 123°28'0 0.0
2019-Mar-16 09:57N 49°26' W 123°28'0 0.0
2019-Mar-16 09:27N 49°26' W 123°28'0 0.0
2019-Mar-16 08:57N 49°26' W 123°28'0 0.0
2019-Mar-16 08:27N 49°26' W 123°28'0 0.0
2019-Mar-16 07:58N 49°26' W 123°28'0 0.0
2019-Mar-16 07:30N 49°26' W 123°28'0 0.0
2019-Mar-16 07:00N 49°26' W 123°28'0 0.9
2019-Mar-16 06:30N 49°26' W 123°28'815.2
2019-Mar-16 06:00N 49°24' W 123°17'1 2.1
2019-Mar-16 05:30N 49°23' W 123°16'815.3
2019-Mar-16 05:00N 49°18' W 123°26'1020.6
2019-Mar-16 04:30N 49°15' W 123°41'1020.6
2019-Mar-16 04:00N 49°12' W 123°56'1 1.9
2019-Mar-16 03:27N 49°12' W 123°57'613.6
2019-Mar-16 03:00N 49°15' W 123°49'1020.2
2019-Mar-16 02:30N 49°18' W 123°35'1019.6
2019-Mar-16 02:00N 49°21' W 123°20'3 6.5
2019-Mar-16 01:30N 49°23' W 123°16'2 4.7
2019-Mar-16 01:00N 49°25' W 123°17'714.9
2019-Mar-16 00:30N 49°26' W 123°28'0 0.8
2019-Mar-16 00:00N 49°26' W 123°28'816.3
2019-Mar-15 23:30N 49°23' W 123°16'0 0.6
2019-Mar-15 23:00N 49°23' W 123°16'713.0
2019-Mar-15 22:30N 49°25' W 123°25'2 4.2
2019-Mar-15 22:01N 49°26' W 123°28'5 9.4
2019-Mar-15 21:30N 49°25' W 123°21'4 8.6
2019-Mar-15 21:00N 49°23' W 123°16'3 6.2
2019-Mar-15 20:31N 49°25' W 123°18'713.4
2019-Mar-15 20:00N 49°26' W 123°28'0 0.8
2019-Mar-15 19:30N 49°26' W 123°28'815.4
2019-Mar-15 19:00N 49°24' W 123°17'1 2.1
2019-Mar-15 18:31N 49°23' W 123°16'611.6
2019-Mar-15 18:00N 49°25' W 123°24'3 5.7
2019-Mar-15 17:30N 49°26' W 123°28'611.1
2019-Mar-15 17:01N 49°26' W 123°20'4 7.5
2019-Mar-15 16:30N 49°23' W 123°16'4 7.7
2019-Mar-15 16:00N 49°26' W 123°20'510.8
2019-Mar-15 15:30N 49°26' W 123°28'2 3.2
2019-Mar-15 15:00N 49°25' W 123°26'713.9
2019-Mar-15 14:30N 49°23' W 123°16'0 0.1
2019-Mar-15 14:00N 49°23' W 123°16'612.7
2019-Mar-15 13:31N 49°25' W 123°25'2 4.5
2019-Mar-15 13:00N 49°26' W 123°28'0 0.0
2019-Mar-15 12:24N 49°26' W 123°28'0 0.0
2019-Mar-15 12:00N 49°26' W 123°28'0 0.0
2019-Mar-15 11:30N 49°26' W 123°28'0 0.0
2019-Mar-15 11:00N 49°26' W 123°28'0 0.0
2019-Mar-15 10:30N 49°26' W 123°28'0 0.0
2019-Mar-15 10:00N 49°26' W 123°28'0 0.0
2019-Mar-15 09:30N 49°26' W 123°28'0 0.0
2019-Mar-15 09:00N 49°26' W 123°28'0 0.0
2019-Mar-15 08:27N 49°26' W 123°28'0 0.0
2019-Mar-15 08:00N 49°26' W 123°28'0 0.0
2019-Mar-15 07:30N 49°26' W 123°28'0 0.0
2019-Mar-15 06:57N 49°26' W 123°28'0 1.1
2019-Mar-15 06:30N 49°26' W 123°28'714.7
2019-Mar-15 06:00N 49°24' W 123°17'1 1.6
2019-Mar-15 05:30N 49°23' W 123°16'815.6
2019-Mar-15 05:00N 49°18' W 123°26'918.6
2019-Mar-15 04:30N 49°15' W 123°39'918.0
2019-Mar-15 04:00N 49°13' W 123°53'3 4.7
2019-Mar-15 03:18N 49°12' W 123°57'517.6
2019-Mar-15 03:01N 49°14' W 123°50'1019.7
2019-Mar-15 02:31N 49°17' W 123°36'1019.6
2019-Mar-15 02:00N 49°20' W 123°21'4 8.6
2019-Mar-15 01:30N 49°23' W 123°16'2 4.9
2019-Mar-15 01:01N 49°25' W 123°17'714.7
2019-Mar-15 00:30N 49°26' W 123°28'1 2.4
2019-Mar-15 00:00N 49°25' W 123°27'714.9
2019-Mar-14 23:30N 49°23' W 123°16'0 0.1
2019-Mar-14 23:00N 49°23' W 123°16'815.4
2019-Mar-14 22:30N 49°26' W 123°27'1 1.7
2019-Mar-14 22:00N 49°26' W 123°28'510.4
2019-Mar-14 21:30N 49°26' W 123°20'4 8.0
2019-Mar-14 21:00N 49°23' W 123°16'3 6.1
2019-Mar-14 20:30N 49°25' W 123°18'713.7
2019-Mar-14 20:00N 49°26' W 123°28'1 1.6
2019-Mar-14 19:30N 49°26' W 123°27'714.7
2019-Mar-14 19:01N 49°24' W 123°17'1 2.1
2019-Mar-14 18:30N 49°23' W 123°16'612.2
2019-Mar-14 18:00N 49°25' W 123°25'3 5.1
2019-Mar-14 17:30N 49°26' W 123°28'611.6
2019-Mar-14 17:00N 49°26' W 123°19'4 7.5
2019-Mar-14 16:30N 49°23' W 123°16'4 7.4
2019-Mar-14 16:00N 49°26' W 123°19'611.6
2019-Mar-14 15:30N 49°26' W 123°28'2 3.3
2019-Mar-14 15:00N 49°25' W 123°26'713.8
2019-Mar-14 14:30N 49°23' W 123°16'0 0.1
2019-Mar-14 14:00N 49°23' W 123°16'612.7
2019-Mar-14 13:31N 49°25' W 123°25'2 4.4
2019-Mar-14 13:00N 49°26' W 123°28'0 0.0
2019-Mar-14 12:28N 49°26' W 123°28'0 0.0
2019-Mar-14 11:55N 49°26' W 123°28'0 0.0
2019-Mar-14 11:25N 49°26' W 123°28'0 0.0
2019-Mar-14 10:55N 49°26' W 123°28'0 0.0
2019-Mar-14 10:28N 49°26' W 123°28'0 0.0
2019-Mar-14 09:55N 49°26' W 123°28'0 0.0
2019-Mar-14 09:25N 49°26' W 123°28'0 0.0
2019-Mar-14 08:55N 49°26' W 123°28'0 0.0
2019-Mar-14 08:25N 49°26' W 123°28'0 0.0
2019-Mar-14 07:55N 49°26' W 123°28'0 0.0
2019-Mar-14 07:25N 49°26' W 123°28'0 0.0
2019-Mar-14 06:55N 49°26' W 123°28'0 0.5
2019-Mar-14 06:30N 49°26' W 123°28'815.6
2019-Mar-14 06:00N 49°24' W 123°17'1 2.3
2019-Mar-14 05:30N 49°23' W 123°16'713.8
2019-Mar-14 05:00N 49°19' W 123°25'918.6
2019-Mar-14 04:30N 49°16' W 123°39'918.8
2019-Mar-14 04:00N 49°13' W 123°53'4 6.0
2019-Mar-14 03:24N 49°12' W 123°57'513.7
2019-Mar-14 03:00N 49°14' W 123°50'918.3
2019-Mar-14 02:30N 49°17' W 123°37'918.5
2019-Mar-14 02:00N 49°19' W 123°23'510.9
2019-Mar-14 01:30N 49°23' W 123°16'1 1.4
2019-Mar-14 01:01N 49°23' W 123°16'816.1
2019-Mar-14 00:30N 49°26' W 123°28'0 0.4
2019-Mar-14 00:00N 49°26' W 123°28'815.4
2019-Mar-13 23:30N 49°24' W 123°17'1 2.9
2019-Mar-13 23:00N 49°23' W 123°16'511.0
2019-Mar-13 22:30N 49°25' W 123°24'3 6.3
2019-Mar-13 22:00N 49°26' W 123°28'4 8.0
2019-Mar-13 21:30N 49°25' W 123°22'5 9.6
2019-Mar-13 21:01N 49°23' W 123°16'3 5.5
2019-Mar-13 20:30N 49°25' W 123°18'714.0
2019-Mar-13 20:00N 49°26' W 123°28'0 0.3
2019-Mar-13 19:30N 49°26' W 123°28'815.8
2019-Mar-13 19:00N 49°24' W 123°17'1 2.3
2019-Mar-13 18:30N 49°23' W 123°16'713.6
2019-Mar-13 18:00N 49°25' W 123°26'2 3.6
2019-Mar-13 17:30N 49°26' W 123°28'611.1
2019-Mar-13 17:00N 49°26' W 123°20'4 7.6
2019-Mar-13 16:30N 49°23' W 123°16'4 8.3
2019-Mar-13 16:00N 49°25' W 123°21'5 9.8
2019-Mar-13 15:30N 49°26' W 123°28'1 2.9
2019-Mar-13 15:00N 49°25' W 123°26'714.3
2019-Mar-13 14:30N 49°23' W 123°16'0 0.1
2019-Mar-13 14:00N 49°23' W 123°16'713.1
2019-Mar-13 13:30N 49°25' W 123°25'2 4.1
2019-Mar-13 13:00N 49°26' W 123°28'8 1.0
2019-Mar-13 05:09N 49°20' W 123°21'319.4
2019-Mar-13 05:00N 49°19' W 123°25'1418.6
2019-Mar-13 04:14N 49°15' W 123°45'418.1
2019-Mar-13 04:00N 49°14' W 123°52'4 6.8
2019-Mar-13 03:24N 49°12' W 123°57'4 9.4
2019-Mar-13 03:00N 49°14' W 123°53'1020.6
2019-Mar-13 02:30N 49°17' W 123°38'1515.0
2019-Mar-13 01:30N 49°23' W 123°16'1 1.5
2019-Mar-13 01:00N 49°23' W 123°16'815.5
2019-Mar-13 00:30N 49°26' W 123°27'1 1.2
2019-Mar-13 00:00N 49°26' W 123°28'714.6
2019-Mar-12 23:30N 49°25' W 123°17'2 4.7
2019-Mar-12 23:00N 49°23' W 123°16'510.5
2019-Mar-12 22:30N 49°25' W 123°23'3 6.9
2019-Mar-12 22:00N 49°26' W 123°28'4 8.9
2019-Mar-12 21:30N 49°25' W 123°22'4 8.8
2019-Mar-12 21:00N 49°23' W 123°16'3 5.4
2019-Mar-12 20:31N 49°25' W 123°18'714.2
2019-Mar-12 20:01N 49°26' W 123°28'1 1.1
2019-Mar-12 19:30N 49°26' W 123°27'714.9
2019-Mar-12 19:00N 49°24' W 123°17'1 2.1
2019-Mar-12 18:30N 49°23' W 123°16'612.3
2019-Mar-12 18:00N 49°25' W 123°25'2 4.8
2019-Mar-12 17:30N 49°26' W 123°28'612.3
2019-Mar-12 17:00N 49°26' W 123°19'4 7.0
2019-Mar-12 16:30N 49°23' W 123°16'4 7.5
2019-Mar-12 16:00N 49°26' W 123°20'611.2
2019-Mar-12 15:30N 49°26' W 123°28'2 3.4
2019-Mar-12 15:00N 49°25' W 123°26'713.6
2019-Mar-12 14:30N 49°23' W 123°16'0 0.0
2019-Mar-12 14:00N 49°23' W 123°16'612.7
2019-Mar-12 13:30N 49°25' W 123°25'2 4.4
2019-Mar-12 13:00N 49°26' W 123°28'0 0.0
2019-Mar-12 12:29N 49°26' W 123°28'0 0.0
2019-Mar-12 11:59N 49°26' W 123°28'0 0.0
2019-Mar-12 11:29N 49°26' W 123°28'0 0.0
2019-Mar-12 10:59N 49°26' W 123°28'0 0.0
2019-Mar-12 10:26N 49°26' W 123°28'0 0.0
2019-Mar-12 09:59N 49°26' W 123°28'0 0.0
2019-Mar-12 09:29N 49°26' W 123°28'0 0.0
2019-Mar-12 08:59N 49°26' W 123°28'0 0.0
2019-Mar-12 08:29N 49°26' W 123°28'0 0.0
2019-Mar-12 07:56N 49°26' W 123°28'0 0.0
2019-Mar-12 07:29N 49°26' W 123°28'0 0.0
2019-Mar-12 06:59N 49°26' W 123°28'  

Dump ship's entire track history